sensor_id;sensor_type;location;lat;lon;timestamp;P1;durP1;ratioP1;P2;durP2;ratioP2
15716;SDS011;7960;50.908;4.204;2022-12-18T00:01:00;57.03;;;28.07;;
15716;SDS011;7960;50.908;4.204;2022-12-18T00:03:30;55.40;;;26.87;;
15716;SDS011;7960;50.908;4.204;2022-12-18T00:06:00;61.00;;;28.50;;
15716;SDS011;7960;50.908;4.204;2022-12-18T00:08:27;53.10;;;27.23;;
15716;SDS011;7960;50.908;4.204;2022-12-18T00:10:54;49.03;;;27.60;;
15716;SDS011;7960;50.908;4.204;2022-12-18T00:13:21;52.70;;;27.37;;
15716;SDS011;7960;50.908;4.204;2022-12-18T00:15:50;55.30;;;27.43;;
15716;SDS011;7960;50.908;4.204;2022-12-18T00:18:16;51.03;;;26.17;;
15716;SDS011;7960;50.908;4.204;2022-12-18T00:20:45;55.70;;;28.23;;
15716;SDS011;7960;50.908;4.204;2022-12-18T00:23:11;58.03;;;27.83;;
15716;SDS011;7960;50.908;4.204;2022-12-18T00:25:38;54.43;;;27.50;;
15716;SDS011;7960;50.908;4.204;2022-12-18T00:28:06;50.03;;;26.20;;
15716;SDS011;7960;50.908;4.204;2022-12-18T00:30:33;57.03;;;26.83;;
15716;SDS011;7960;50.908;4.204;2022-12-18T00:33:02;50.73;;;26.23;;
15716;SDS011;7960;50.908;4.204;2022-12-18T00:35:29;49.83;;;26.80;;
15716;SDS011;7960;50.908;4.204;2022-12-18T00:38:03;53.77;;;25.97;;
15716;SDS011;7960;50.908;4.204;2022-12-18T00:40:33;51.33;;;25.53;;
15716;SDS011;7960;50.908;4.204;2022-12-18T00:43:00;51.30;;;26.47;;
15716;SDS011;7960;50.908;4.204;2022-12-18T00:45:27;106.17;;;44.87;;
15716;SDS011;7960;50.908;4.204;2022-12-18T00:47:56;52.77;;;26.33;;
15716;SDS011;7960;50.908;4.204;2022-12-18T00:50:25;43.30;;;22.53;;
15716;SDS011;7960;50.908;4.204;2022-12-18T00:52:52;42.20;;;24.03;;
15716;SDS011;7960;50.908;4.204;2022-12-18T00:55:19;48.43;;;24.40;;
15716;SDS011;7960;50.908;4.204;2022-12-18T00:57:46;45.70;;;22.43;;
15716;SDS011;7960;50.908;4.204;2022-12-18T01:00:14;40.33;;;21.87;;
15716;SDS011;7960;50.908;4.204;2022-12-18T01:02:43;42.23;;;21.87;;
15716;SDS011;7960;50.908;4.204;2022-12-18T01:05:11;38.47;;;21.63;;
15716;SDS011;7960;50.908;4.204;2022-12-18T01:07:40;39.40;;;20.97;;
15716;SDS011;7960;50.908;4.204;2022-12-18T01:10:08;39.97;;;20.63;;
15716;SDS011;7960;50.908;4.204;2022-12-18T01:12:37;35.77;;;20.20;;
15716;SDS011;7960;50.908;4.204;2022-12-18T01:15:05;39.80;;;20.57;;
15716;SDS011;7960;50.908;4.204;2022-12-18T01:17:34;38.30;;;20.77;;
15716;SDS011;7960;50.908;4.204;2022-12-18T01:20:00;41.30;;;20.83;;
15716;SDS011;7960;50.908;4.204;2022-12-18T01:22:27;37.53;;;20.70;;
15716;SDS011;7960;50.908;4.204;2022-12-18T01:24:56;38.13;;;20.07;;
15716;SDS011;7960;50.908;4.204;2022-12-18T01:27:23;37.23;;;18.40;;
15716;SDS011;7960;50.908;4.204;2022-12-18T01:29:49;34.27;;;18.57;;
15716;SDS011;7960;50.908;4.204;2022-12-18T01:32:16;33.10;;;18.93;;
15716;SDS011;7960;50.908;4.204;2022-12-18T01:34:43;33.20;;;18.13;;
15716;SDS011;7960;50.908;4.204;2022-12-18T01:37:10;32.17;;;18.40;;
15716;SDS011;7960;50.908;4.204;2022-12-18T01:39:37;34.93;;;19.13;;
15716;SDS011;7960;50.908;4.204;2022-12-18T01:42:08;43.93;;;22.20;;
15716;SDS011;7960;50.908;4.204;2022-12-18T01:47:49;38.50;;;21.23;;
15716;SDS011;7960;50.908;4.204;2022-12-18T01:50:19;46.17;;;24.43;;
15716;SDS011;7960;50.908;4.204;2022-12-18T01:52:49;47.60;;;22.63;;
15716;SDS011;7960;50.908;4.204;2022-12-18T01:55:18;36.43;;;20.30;;
15716;SDS011;7960;50.908;4.204;2022-12-18T01:57:48;37.10;;;19.97;;
15716;SDS011;7960;50.908;4.204;2022-12-18T02:00:18;40.27;;;21.47;;
15716;SDS011;7960;50.908;4.204;2022-12-18T02:02:47;42.67;;;20.47;;
15716;SDS011;7960;50.908;4.204;2022-12-18T02:05:16;39.03;;;20.50;;
15716;SDS011;7960;50.908;4.204;2022-12-18T02:07:47;41.83;;;20.40;;
15716;SDS011;7960;50.908;4.204;2022-12-18T02:10:29;37.53;;;19.03;;
15716;SDS011;7960;50.908;4.204;2022-12-18T02:13:06;35.50;;;19.30;;
15716;SDS011;7960;50.908;4.204;2022-12-18T02:15:39;32.50;;;17.77;;
15716;SDS011;7960;50.908;4.204;2022-12-18T02:18:10;37.20;;;19.00;;
15716;SDS011;7960;50.908;4.204;2022-12-18T02:20:43;33.20;;;18.47;;
15716;SDS011;7960;50.908;4.204;2022-12-18T02:23:17;37.60;;;19.23;;
15716;SDS011;7960;50.908;4.204;2022-12-18T02:26:06;35.17;;;18.47;;
15716;SDS011;7960;50.908;4.204;2022-12-18T02:28:40;31.97;;;17.73;;
15716;SDS011;7960;50.908;4.204;2022-12-18T02:31:11;30.43;;;16.63;;
15716;SDS011;7960;50.908;4.204;2022-12-18T02:33:40;32.77;;;18.20;;
15716;SDS011;7960;50.908;4.204;2022-12-18T02:36:09;35.30;;;18.60;;
15716;SDS011;7960;50.908;4.204;2022-12-18T02:38:38;31.77;;;17.20;;
15716;SDS011;7960;50.908;4.204;2022-12-18T02:41:11;32.80;;;17.80;;
15716;SDS011;7960;50.908;4.204;2022-12-18T02:43:39;36.40;;;17.97;;
15716;SDS011;7960;50.908;4.204;2022-12-18T02:46:20;34.30;;;17.60;;
15716;SDS011;7960;50.908;4.204;2022-12-18T02:48:53;32.03;;;16.83;;
15716;SDS011;7960;50.908;4.204;2022-12-18T02:51:28;34.17;;;16.90;;
15716;SDS011;7960;50.908;4.204;2022-12-18T02:53:58;33.57;;;17.73;;
15716;SDS011;7960;50.908;4.204;2022-12-18T02:56:32;34.37;;;17.80;;
15716;SDS011;7960;50.908;4.204;2022-12-18T02:59:04;34.97;;;17.57;;
15716;SDS011;7960;50.908;4.204;2022-12-18T03:01:34;31.63;;;17.13;;
15716;SDS011;7960;50.908;4.204;2022-12-18T03:04:09;33.67;;;17.07;;
15716;SDS011;7960;50.908;4.204;2022-12-18T03:06:41;36.00;;;17.43;;
15716;SDS011;7960;50.908;4.204;2022-12-18T03:09:12;31.70;;;16.10;;
15716;SDS011;7960;50.908;4.204;2022-12-18T03:11:46;31.10;;;14.60;;
15716;SDS011;7960;50.908;4.204;2022-12-18T03:14:33;28.30;;;15.30;;
15716;SDS011;7960;50.908;4.204;2022-12-18T03:17:04;30.40;;;16.00;;
15716;SDS011;7960;50.908;4.204;2022-12-18T03:19:33;26.70;;;14.53;;
15716;SDS011;7960;50.908;4.204;2022-12-18T03:22:04;29.27;;;15.13;;
15716;SDS011;7960;50.908;4.204;2022-12-18T03:24:33;30.03;;;15.20;;
15716;SDS011;7960;50.908;4.204;2022-12-18T03:27:06;28.67;;;15.43;;
15716;SDS011;7960;50.908;4.204;2022-12-18T03:29:38;30.00;;;14.17;;
15716;SDS011;7960;50.908;4.204;2022-12-18T03:32:09;29.90;;;14.40;;
15716;SDS011;7960;50.908;4.204;2022-12-18T03:34:39;32.03;;;14.93;;
15716;SDS011;7960;50.908;4.204;2022-12-18T03:37:07;26.27;;;14.57;;
15716;SDS011;7960;50.908;4.204;2022-12-18T03:39:35;31.43;;;14.40;;
15716;SDS011;7960;50.908;4.204;2022-12-18T03:42:04;30.93;;;15.60;;
15716;SDS011;7960;50.908;4.204;2022-12-18T03:44:39;27.30;;;13.27;;
15716;SDS011;7960;50.908;4.204;2022-12-18T03:47:13;28.67;;;13.27;;
15716;SDS011;7960;50.908;4.204;2022-12-18T03:49:45;29.43;;;13.97;;
15716;SDS011;7960;50.908;4.204;2022-12-18T03:52:17;27.80;;;13.80;;
15716;SDS011;7960;50.908;4.204;2022-12-18T03:54:51;25.23;;;13.47;;
15716;SDS011;7960;50.908;4.204;2022-12-18T03:57:22;26.33;;;13.73;;
15716;SDS011;7960;50.908;4.204;2022-12-18T03:59:54;23.93;;;13.47;;
15716;SDS011;7960;50.908;4.204;2022-12-18T04:02:23;23.60;;;13.37;;
15716;SDS011;7960;50.908;4.204;2022-12-18T04:04:51;25.00;;;13.13;;
15716;SDS011;7960;50.908;4.204;2022-12-18T04:07:22;27.80;;;15.03;;
15716;SDS011;7960;50.908;4.204;2022-12-18T04:09:50;29.00;;;13.70;;
15716;SDS011;7960;50.908;4.204;2022-12-18T04:12:22;21.57;;;12.50;;
15716;SDS011;7960;50.908;4.204;2022-12-18T04:14:50;23.47;;;12.67;;
15716;SDS011;7960;50.908;4.204;2022-12-18T04:17:17;20.63;;;11.67;;
15716;SDS011;7960;50.908;4.204;2022-12-18T04:19:44;21.53;;;12.10;;
15716;SDS011;7960;50.908;4.204;2022-12-18T04:22:11;24.03;;;12.03;;
15716;SDS011;7960;50.908;4.204;2022-12-18T04:24:38;26.23;;;12.33;;
15716;SDS011;7960;50.908;4.204;2022-12-18T04:27:04;27.53;;;13.53;;
15716;SDS011;7960;50.908;4.204;2022-12-18T04:29:33;23.87;;;13.10;;
15716;SDS011;7960;50.908;4.204;2022-12-18T04:32:00;21.50;;;12.27;;
15716;SDS011;7960;50.908;4.204;2022-12-18T04:34:26;19.23;;;11.83;;
15716;SDS011;7960;50.908;4.204;2022-12-18T04:36:53;28.67;;;13.33;;
15716;SDS011;7960;50.908;4.204;2022-12-18T04:39:20;26.13;;;13.27;;
15716;SDS011;7960;50.908;4.204;2022-12-18T04:41:47;24.50;;;12.47;;
15716;SDS011;7960;50.908;4.204;2022-12-18T04:44:14;26.30;;;12.70;;
15716;SDS011;7960;50.908;4.204;2022-12-18T04:46:42;19.40;;;11.57;;
15716;SDS011;7960;50.908;4.204;2022-12-18T04:49:09;22.63;;;12.33;;
15716;SDS011;7960;50.908;4.204;2022-12-18T04:51:36;24.77;;;12.97;;
15716;SDS011;7960;50.908;4.204;2022-12-18T04:54:03;22.83;;;12.10;;
15716;SDS011;7960;50.908;4.204;2022-12-18T04:56:31;24.77;;;12.03;;
15716;SDS011;7960;50.908;4.204;2022-12-18T04:58:58;22.03;;;12.33;;
15716;SDS011;7960;50.908;4.204;2022-12-18T05:01:25;22.80;;;11.47;;
15716;SDS011;7960;50.908;4.204;2022-12-18T05:03:53;21.40;;;12.00;;
15716;SDS011;7960;50.908;4.204;2022-12-18T05:06:20;19.57;;;10.63;;
15716;SDS011;7960;50.908;4.204;2022-12-18T05:08:47;22.70;;;11.40;;
15716;SDS011;7960;50.908;4.204;2022-12-18T05:11:14;22.80;;;11.33;;
15716;SDS011;7960;50.908;4.204;2022-12-18T05:13:42;19.20;;;10.80;;
15716;SDS011;7960;50.908;4.204;2022-12-18T05:16:10;20.03;;;11.60;;
15716;SDS011;7960;50.908;4.204;2022-12-18T05:18:39;24.17;;;11.27;;
15716;SDS011;7960;50.908;4.204;2022-12-18T05:21:07;20.90;;;11.07;;
15716;SDS011;7960;50.908;4.204;2022-12-18T05:23:34;19.70;;;10.33;;
15716;SDS011;7960;50.908;4.204;2022-12-18T05:26:02;21.87;;;10.87;;
15716;SDS011;7960;50.908;4.204;2022-12-18T05:28:31;19.53;;;9.93;;
15716;SDS011;7960;50.908;4.204;2022-12-18T05:31:00;19.20;;;10.63;;
15716;SDS011;7960;50.908;4.204;2022-12-18T05:33:28;23.93;;;10.10;;
15716;SDS011;7960;50.908;4.204;2022-12-18T05:35:58;18.73;;;10.33;;
15716;SDS011;7960;50.908;4.204;2022-12-18T05:38:28;23.67;;;10.73;;
15716;SDS011;7960;50.908;4.204;2022-12-18T05:40:56;18.87;;;9.97;;
15716;SDS011;7960;50.908;4.204;2022-12-18T05:43:23;20.17;;;10.23;;
15716;SDS011;7960;50.908;4.204;2022-12-18T05:45:51;18.20;;;9.80;;
15716;SDS011;7960;50.908;4.204;2022-12-18T05:48:18;19.37;;;9.97;;
15716;SDS011;7960;50.908;4.204;2022-12-18T05:50:46;18.97;;;10.43;;
15716;SDS011;7960;50.908;4.204;2022-12-18T05:53:14;19.97;;;9.47;;
15716;SDS011;7960;50.908;4.204;2022-12-18T05:55:43;18.40;;;9.77;;
15716;SDS011;7960;50.908;4.204;2022-12-18T05:58:11;19.50;;;9.60;;
15716;SDS011;7960;50.908;4.204;2022-12-18T06:00:40;16.10;;;8.70;;
15716;SDS011;7960;50.908;4.204;2022-12-18T06:03:08;17.07;;;10.40;;
15716;SDS011;7960;50.908;4.204;2022-12-18T06:05:35;14.67;;;9.03;;
15716;SDS011;7960;50.908;4.204;2022-12-18T06:08:03;17.60;;;9.43;;
15716;SDS011;7960;50.908;4.204;2022-12-18T06:10:30;16.67;;;9.27;;
15716;SDS011;7960;50.908;4.204;2022-12-18T06:12:58;16.60;;;8.93;;
15716;SDS011;7960;50.908;4.204;2022-12-18T06:15:25;17.57;;;9.00;;
15716;SDS011;7960;50.908;4.204;2022-12-18T06:17:52;17.70;;;8.87;;
15716;SDS011;7960;50.908;4.204;2022-12-18T06:20:19;13.87;;;8.13;;
15716;SDS011;7960;50.908;4.204;2022-12-18T06:22:46;18.03;;;8.47;;
15716;SDS011;7960;50.908;4.204;2022-12-18T06:25:13;16.03;;;8.60;;
15716;SDS011;7960;50.908;4.204;2022-12-18T06:27:40;14.07;;;7.67;;
15716;SDS011;7960;50.908;4.204;2022-12-18T06:30:09;15.60;;;8.53;;
15716;SDS011;7960;50.908;4.204;2022-12-18T06:32:37;19.20;;;8.80;;
15716;SDS011;7960;50.908;4.204;2022-12-18T06:35:04;16.30;;;8.73;;
15716;SDS011;7960;50.908;4.204;2022-12-18T06:37:32;14.90;;;8.70;;
15716;SDS011;7960;50.908;4.204;2022-12-18T06:39:59;15.67;;;8.90;;
15716;SDS011;7960;50.908;4.204;2022-12-18T06:42:26;16.37;;;8.10;;
15716;SDS011;7960;50.908;4.204;2022-12-18T06:44:54;17.03;;;8.77;;
15716;SDS011;7960;50.908;4.204;2022-12-18T06:47:22;15.90;;;8.77;;
15716;SDS011;7960;50.908;4.204;2022-12-18T06:49:49;17.77;;;9.13;;
15716;SDS011;7960;50.908;4.204;2022-12-18T06:52:16;16.50;;;9.50;;
15716;SDS011;7960;50.908;4.204;2022-12-18T06:54:43;18.40;;;9.97;;
15716;SDS011;7960;50.908;4.204;2022-12-18T06:57:10;19.53;;;9.90;;
15716;SDS011;7960;50.908;4.204;2022-12-18T06:59:37;18.53;;;8.77;;
15716;SDS011;7960;50.908;4.204;2022-12-18T07:02:03;16.83;;;8.67;;
15716;SDS011;7960;50.908;4.204;2022-12-18T07:04:32;21.50;;;11.27;;
15716;SDS011;7960;50.908;4.204;2022-12-18T07:06:58;16.80;;;8.80;;
15716;SDS011;7960;50.908;4.204;2022-12-18T07:09:25;16.73;;;9.30;;
15716;SDS011;7960;50.908;4.204;2022-12-18T07:11:52;13.63;;;8.13;;
15716;SDS011;7960;50.908;4.204;2022-12-18T07:14:19;17.20;;;8.83;;
15716;SDS011;7960;50.908;4.204;2022-12-18T07:16:46;17.27;;;8.90;;
15716;SDS011;7960;50.908;4.204;2022-12-18T07:19:12;14.90;;;8.20;;
15716;SDS011;7960;50.908;4.204;2022-12-18T07:21:41;17.07;;;8.63;;
15716;SDS011;7960;50.908;4.204;2022-12-18T07:24:08;13.70;;;7.73;;
15716;SDS011;7960;50.908;4.204;2022-12-18T07:26:35;14.13;;;8.20;;
15716;SDS011;7960;50.908;4.204;2022-12-18T07:29:01;15.33;;;8.57;;
15716;SDS011;7960;50.908;4.204;2022-12-18T07:31:28;12.33;;;8.33;;
15716;SDS011;7960;50.908;4.204;2022-12-18T07:33:55;17.40;;;9.53;;
15716;SDS011;7960;50.908;4.204;2022-12-18T07:36:22;14.77;;;8.90;;
15716;SDS011;7960;50.908;4.204;2022-12-18T07:38:50;16.27;;;9.87;;
15716;SDS011;7960;50.908;4.204;2022-12-18T07:41:17;20.47;;;10.43;;
15716;SDS011;7960;50.908;4.204;2022-12-18T07:43:45;16.07;;;9.73;;
15716;SDS011;7960;50.908;4.204;2022-12-18T07:46:12;16.73;;;9.73;;
15716;SDS011;7960;50.908;4.204;2022-12-18T07:48:40;18.87;;;10.33;;
15716;SDS011;7960;50.908;4.204;2022-12-18T07:51:08;15.77;;;9.37;;
15716;SDS011;7960;50.908;4.204;2022-12-18T07:53:35;16.30;;;8.73;;
15716;SDS011;7960;50.908;4.204;2022-12-18T07:56:04;17.37;;;9.60;;
15716;SDS011;7960;50.908;4.204;2022-12-18T07:58:33;18.63;;;9.87;;
15716;SDS011;7960;50.908;4.204;2022-12-18T08:01:03;15.63;;;9.07;;
15716;SDS011;7960;50.908;4.204;2022-12-18T08:03:31;16.03;;;9.77;;
15716;SDS011;7960;50.908;4.204;2022-12-18T08:05:58;17.97;;;9.97;;
15716;SDS011;7960;50.908;4.204;2022-12-18T08:08:26;18.57;;;10.07;;
15716;SDS011;7960;50.908;4.204;2022-12-18T08:10:53;20.97;;;10.57;;
15716;SDS011;7960;50.908;4.204;2022-12-18T08:13:21;15.70;;;10.00;;
15716;SDS011;7960;50.908;4.204;2022-12-18T08:15:55;15.70;;;9.70;;
15716;SDS011;7960;50.908;4.204;2022-12-18T08:18:22;16.10;;;9.13;;
15716;SDS011;7960;50.908;4.204;2022-12-18T08:20:49;15.33;;;8.77;;
15716;SDS011;7960;50.908;4.204;2022-12-18T08:23:16;16.23;;;8.97;;
15716;SDS011;7960;50.908;4.204;2022-12-18T08:25:43;11.50;;;6.97;;
15716;SDS011;7960;50.908;4.204;2022-12-18T08:28:10;14.20;;;8.50;;
15716;SDS011;7960;50.908;4.204;2022-12-18T08:30:38;16.03;;;8.50;;
15716;SDS011;7960;50.908;4.204;2022-12-18T08:33:05;13.10;;;8.23;;
15716;SDS011;7960;50.908;4.204;2022-12-18T08:35:34;17.67;;;8.77;;
15716;SDS011;7960;50.908;4.204;2022-12-18T08:38:01;15.53;;;8.33;;
15716;SDS011;7960;50.908;4.204;2022-12-18T08:40:28;14.90;;;8.10;;
15716;SDS011;7960;50.908;4.204;2022-12-18T08:42:55;17.60;;;9.03;;
15716;SDS011;7960;50.908;4.204;2022-12-18T08:45:41;13.70;;;7.70;;
15716;SDS011;7960;50.908;4.204;2022-12-18T08:48:08;16.00;;;8.23;;
15716;SDS011;7960;50.908;4.204;2022-12-18T08:50:35;15.73;;;9.40;;
15716;SDS011;7960;50.908;4.204;2022-12-18T08:53:02;14.40;;;8.07;;
15716;SDS011;7960;50.908;4.204;2022-12-18T08:55:28;12.43;;;7.17;;
15716;SDS011;7960;50.908;4.204;2022-12-18T08:57:55;11.77;;;6.77;;
15716;SDS011;7960;50.908;4.204;2022-12-18T09:00:22;11.37;;;6.87;;
15716;SDS011;7960;50.908;4.204;2022-12-18T09:02:50;14.40;;;9.37;;
15716;SDS011;7960;50.908;4.204;2022-12-18T09:05:17;13.67;;;7.80;;
15716;SDS011;7960;50.908;4.204;2022-12-18T09:07:44;13.63;;;8.40;;
15716;SDS011;7960;50.908;4.204;2022-12-18T09:10:11;13.77;;;8.63;;
15716;SDS011;7960;50.908;4.204;2022-12-18T09:12:37;11.00;;;6.90;;
15716;SDS011;7960;50.908;4.204;2022-12-18T09:15:05;13.47;;;7.90;;
15716;SDS011;7960;50.908;4.204;2022-12-18T09:17:32;7.60;;;4.53;;
15716;SDS011;7960;50.908;4.204;2022-12-18T09:20:00;9.73;;;6.10;;
15716;SDS011;7960;50.908;4.204;2022-12-18T09:22:27;9.87;;;5.23;;
15716;SDS011;7960;50.908;4.204;2022-12-18T09:24:54;10.57;;;6.43;;
15716;SDS011;7960;50.908;4.204;2022-12-18T09:27:20;15.10;;;8.40;;
15716;SDS011;7960;50.908;4.204;2022-12-18T09:29:47;15.87;;;8.80;;
15716;SDS011;7960;50.908;4.204;2022-12-18T09:32:14;12.00;;;8.10;;
15716;SDS011;7960;50.908;4.204;2022-12-18T09:34:41;9.70;;;6.03;;
15716;SDS011;7960;50.908;4.204;2022-12-18T09:37:09;14.83;;;7.87;;
15716;SDS011;7960;50.908;4.204;2022-12-18T09:39:36;10.83;;;6.23;;
15716;SDS011;7960;50.908;4.204;2022-12-18T09:42:04;13.83;;;7.13;;
15716;SDS011;7960;50.908;4.204;2022-12-18T09:44:32;14.83;;;8.83;;
15716;SDS011;7960;50.908;4.204;2022-12-18T09:47:05;13.43;;;8.20;;
15716;SDS011;7960;50.908;4.204;2022-12-18T09:49:37;13.63;;;8.13;;
15716;SDS011;7960;50.908;4.204;2022-12-18T09:52:11;13.73;;;7.90;;
15716;SDS011;7960;50.908;4.204;2022-12-18T09:54:42;16.03;;;9.40;;
15716;SDS011;7960;50.908;4.204;2022-12-18T09:57:13;14.27;;;8.33;;
15716;SDS011;7960;50.908;4.204;2022-12-18T09:59:41;13.87;;;8.97;;
15716;SDS011;7960;50.908;4.204;2022-12-18T10:02:14;14.47;;;8.97;;
15716;SDS011;7960;50.908;4.204;2022-12-18T10:04:42;17.37;;;10.40;;
15716;SDS011;7960;50.908;4.204;2022-12-18T10:07:14;15.07;;;8.97;;
15716;SDS011;7960;50.908;4.204;2022-12-18T10:09:50;15.97;;;9.73;;
15716;SDS011;7960;50.908;4.204;2022-12-18T10:12:23;17.60;;;10.40;;
15716;SDS011;7960;50.908;4.204;2022-12-18T10:14:59;16.20;;;9.87;;
15716;SDS011;7960;50.908;4.204;2022-12-18T10:17:33;16.07;;;9.60;;
15716;SDS011;7960;50.908;4.204;2022-12-18T10:20:10;20.47;;;12.07;;
15716;SDS011;7960;50.908;4.204;2022-12-18T10:22:46;14.93;;;9.33;;
15716;SDS011;7960;50.908;4.204;2022-12-18T10:25:21;17.13;;;10.03;;
15716;SDS011;7960;50.908;4.204;2022-12-18T10:27:51;19.77;;;11.00;;
15716;SDS011;7960;50.908;4.204;2022-12-18T10:30:22;19.27;;;11.37;;
15716;SDS011;7960;50.908;4.204;2022-12-18T10:32:49;19.63;;;10.67;;
15716;SDS011;7960;50.908;4.204;2022-12-18T10:35:17;17.27;;;10.50;;
15716;SDS011;7960;50.908;4.204;2022-12-18T10:38:04;18.40;;;10.57;;
15716;SDS011;7960;50.908;4.204;2022-12-18T10:40:33;16.90;;;10.80;;
15716;SDS011;7960;50.908;4.204;2022-12-18T10:43:15;21.47;;;12.23;;
15716;SDS011;7960;50.908;4.204;2022-12-18T10:45:56;19.13;;;10.80;;
15716;SDS011;7960;50.908;4.204;2022-12-18T10:48:25;21.03;;;11.50;;
15716;SDS011;7960;50.908;4.204;2022-12-18T10:50:53;17.43;;;9.90;;
15716;SDS011;7960;50.908;4.204;2022-12-18T10:53:23;20.73;;;10.43;;
15716;SDS011;7960;50.908;4.204;2022-12-18T10:55:51;17.57;;;10.10;;
15716;SDS011;7960;50.908;4.204;2022-12-18T10:58:21;25.07;;;11.10;;
15716;SDS011;7960;50.908;4.204;2022-12-18T11:01:03;19.10;;;11.13;;
15716;SDS011;7960;50.908;4.204;2022-12-18T11:03:33;16.40;;;10.17;;
15716;SDS011;7960;50.908;4.204;2022-12-18T11:06:03;16.43;;;10.00;;
15716;SDS011;7960;50.908;4.204;2022-12-18T11:08:33;15.00;;;9.97;;
15716;SDS011;7960;50.908;4.204;2022-12-18T11:11:00;15.83;;;9.97;;
15716;SDS011;7960;50.908;4.204;2022-12-18T11:13:28;14.90;;;9.43;;
15716;SDS011;7960;50.908;4.204;2022-12-18T11:15:56;21.37;;;10.30;;
15716;SDS011;7960;50.908;4.204;2022-12-18T11:18:25;21.97;;;10.50;;
15716;SDS011;7960;50.908;4.204;2022-12-18T11:20:54;16.73;;;9.60;;
15716;SDS011;7960;50.908;4.204;2022-12-18T11:23:23;20.77;;;11.07;;
15716;SDS011;7960;50.908;4.204;2022-12-18T11:25:53;18.17;;;11.40;;
15716;SDS011;7960;50.908;4.204;2022-12-18T11:28:25;14.30;;;8.60;;
15716;SDS011;7960;50.908;4.204;2022-12-18T11:31:18;16.97;;;10.23;;
15716;SDS011;7960;50.908;4.204;2022-12-18T11:34:01;18.50;;;10.40;;
15716;SDS011;7960;50.908;4.204;2022-12-18T11:36:33;19.27;;;11.10;;
15716;SDS011;7960;50.908;4.204;2022-12-18T11:39:05;19.87;;;10.37;;
15716;SDS011;7960;50.908;4.204;2022-12-18T11:41:41;19.93;;;10.57;;
15716;SDS011;7960;50.908;4.204;2022-12-18T11:44:34;16.40;;;10.13;;
15716;SDS011;7960;50.908;4.204;2022-12-18T11:47:08;29.87;;;17.80;;
15716;SDS011;7960;50.908;4.204;2022-12-18T11:49:41;53.07;;;27.30;;
15716;SDS011;7960;50.908;4.204;2022-12-18T11:52:09;149.10;;;72.87;;
15716;SDS011;7960;50.908;4.204;2022-12-18T11:54:41;19.37;;;12.20;;
15716;SDS011;7960;50.908;4.204;2022-12-18T11:57:11;15.53;;;9.63;;
15716;SDS011;7960;50.908;4.204;2022-12-18T11:59:48;18.23;;;10.80;;
15716;SDS011;7960;50.908;4.204;2022-12-18T12:02:25;20.07;;;11.37;;
15716;SDS011;7960;50.908;4.204;2022-12-18T12:05:06;19.07;;;10.43;;
15716;SDS011;7960;50.908;4.204;2022-12-18T12:07:47;18.13;;;10.60;;
15716;SDS011;7960;50.908;4.204;2022-12-18T12:10:25;19.83;;;11.57;;
15716;SDS011;7960;50.908;4.204;2022-12-18T12:13:05;17.50;;;10.40;;
15716;SDS011;7960;50.908;4.204;2022-12-18T12:15:46;17.77;;;10.67;;
15716;SDS011;7960;50.908;4.204;2022-12-18T12:18:25;19.77;;;10.77;;
15716;SDS011;7960;50.908;4.204;2022-12-18T12:21:00;20.07;;;11.27;;
15716;SDS011;7960;50.908;4.204;2022-12-18T12:23:35;19.17;;;11.90;;
15716;SDS011;7960;50.908;4.204;2022-12-18T12:26:07;24.53;;;12.07;;
15716;SDS011;7960;50.908;4.204;2022-12-18T12:31:48;22.47;;;11.57;;
15716;SDS011;7960;50.908;4.204;2022-12-18T12:34:26;21.20;;;11.53;;
15716;SDS011;7960;50.908;4.204;2022-12-18T12:37:04;21.47;;;11.97;;
15716;SDS011;7960;50.908;4.204;2022-12-18T12:39:40;20.00;;;11.87;;
15716;SDS011;7960;50.908;4.204;2022-12-18T12:42:11;19.33;;;11.57;;
15716;SDS011;7960;50.908;4.204;2022-12-18T12:44:58;21.63;;;12.53;;
15716;SDS011;7960;50.908;4.204;2022-12-18T12:47:33;19.83;;;10.77;;
15716;SDS011;7960;50.908;4.204;2022-12-18T12:50:05;22.50;;;12.07;;
15716;SDS011;7960;50.908;4.204;2022-12-18T12:52:39;22.10;;;11.97;;
15716;SDS011;7960;50.908;4.204;2022-12-18T12:55:12;20.03;;;12.30;;
15716;SDS011;7960;50.908;4.204;2022-12-18T12:57:43;21.30;;;11.77;;
15716;SDS011;7960;50.908;4.204;2022-12-18T13:00:14;18.67;;;11.57;;
15716;SDS011;7960;50.908;4.204;2022-12-18T13:02:46;22.43;;;12.53;;
15716;SDS011;7960;50.908;4.204;2022-12-18T13:05:19;22.17;;;12.23;;
15716;SDS011;7960;50.908;4.204;2022-12-18T13:07:53;22.77;;;12.83;;
15716;SDS011;7960;50.908;4.204;2022-12-18T13:10:31;20.73;;;11.40;;
15716;SDS011;7960;50.908;4.204;2022-12-18T13:12:59;22.77;;;11.63;;
15716;SDS011;7960;50.908;4.204;2022-12-18T13:15:31;21.13;;;12.07;;
15716;SDS011;7960;50.908;4.204;2022-12-18T13:18:04;20.40;;;12.10;;
15716;SDS011;7960;50.908;4.204;2022-12-18T13:20:38;22.57;;;13.33;;
15716;SDS011;7960;50.908;4.204;2022-12-18T13:23:19;19.80;;;12.00;;
15716;SDS011;7960;50.908;4.204;2022-12-18T13:25:53;20.27;;;11.90;;
15716;SDS011;7960;50.908;4.204;2022-12-18T13:28:21;20.77;;;11.47;;
15716;SDS011;7960;50.908;4.204;2022-12-18T13:30:53;19.63;;;11.30;;
15716;SDS011;7960;50.908;4.204;2022-12-18T13:36:35;26.40;;;13.00;;
15716;SDS011;7960;50.908;4.204;2022-12-18T13:39:21;22.43;;;12.17;;
15716;SDS011;7960;50.908;4.204;2022-12-18T13:41:51;26.23;;;13.20;;
15716;SDS011;7960;50.908;4.204;2022-12-18T13:44:30;22.70;;;12.37;;
15716;SDS011;7960;50.908;4.204;2022-12-18T13:46:58;22.23;;;12.87;;
15716;SDS011;7960;50.908;4.204;2022-12-18T13:49:30;24.70;;;13.80;;
15716;SDS011;7960;50.908;4.204;2022-12-18T13:52:03;22.30;;;12.57;;
15716;SDS011;7960;50.908;4.204;2022-12-18T13:54:42;24.10;;;13.17;;
15716;SDS011;7960;50.908;4.204;2022-12-18T13:57:25;25.47;;;13.57;;
15716;SDS011;7960;50.908;4.204;2022-12-18T13:59:54;23.80;;;13.50;;
15716;SDS011;7960;50.908;4.204;2022-12-18T14:02:22;22.23;;;13.17;;
15716;SDS011;7960;50.908;4.204;2022-12-18T14:04:51;26.30;;;13.40;;
15716;SDS011;7960;50.908;4.204;2022-12-18T14:07:19;25.87;;;13.37;;
15716;SDS011;7960;50.908;4.204;2022-12-18T14:09:49;23.77;;;13.83;;
15716;SDS011;7960;50.908;4.204;2022-12-18T14:12:18;25.63;;;13.47;;
15716;SDS011;7960;50.908;4.204;2022-12-18T14:15:06;25.20;;;12.90;;
15716;SDS011;7960;50.908;4.204;2022-12-18T14:17:41;25.33;;;14.03;;
15716;SDS011;7960;50.908;4.204;2022-12-18T14:20:13;26.20;;;14.80;;
15716;SDS011;7960;50.908;4.204;2022-12-18T14:22:42;24.80;;;14.40;;
15716;SDS011;7960;50.908;4.204;2022-12-18T14:25:15;28.53;;;15.17;;
15716;SDS011;7960;50.908;4.204;2022-12-18T14:27:45;27.47;;;15.17;;
15716;SDS011;7960;50.908;4.204;2022-12-18T14:30:32;29.60;;;16.07;;
15716;SDS011;7960;50.908;4.204;2022-12-18T14:33:03;27.57;;;15.73;;
15716;SDS011;7960;50.908;4.204;2022-12-18T14:35:33;27.53;;;15.33;;
15716;SDS011;7960;50.908;4.204;2022-12-18T14:38:09;31.87;;;15.33;;
15716;SDS011;7960;50.908;4.204;2022-12-18T14:40:47;27.73;;;15.87;;
15716;SDS011;7960;50.908;4.204;2022-12-18T14:43:17;27.67;;;15.17;;
15716;SDS011;7960;50.908;4.204;2022-12-18T14:45:44;26.53;;;14.60;;
15716;SDS011;7960;50.908;4.204;2022-12-18T14:48:13;26.70;;;14.27;;
15716;SDS011;7960;50.908;4.204;2022-12-18T14:50:45;34.13;;;16.17;;
15716;SDS011;7960;50.908;4.204;2022-12-18T14:53:21;20.03;;;11.53;;
15716;SDS011;7960;50.908;4.204;2022-12-18T14:55:52;27.13;;;14.63;;
15716;SDS011;7960;50.908;4.204;2022-12-18T14:58:19;32.27;;;15.67;;
15716;SDS011;7960;50.908;4.204;2022-12-18T15:00:46;30.70;;;14.87;;
15716;SDS011;7960;50.908;4.204;2022-12-18T15:03:14;29.80;;;15.97;;
15716;SDS011;7960;50.908;4.204;2022-12-18T15:05:47;32.23;;;16.33;;